ホーチミン の空港の天気 - METARとTAF

タンソンニャット国際空港 (ホーチミン) ( VVTS / SGN ) - ベトナム ホーチミン市
飛行場実況気象(Metar)
観測時間04/21 21:30 ICT (04/21 14:30 UTC)
風向・風速南東 5m/s
視程10km以上
天気現象
少しの雲 雲底高度 520m
気温30℃
湿度75%
気圧1007hPa
METARVVTS 211430Z 14009KT 120V190 9999 FEW017 30/25 Q1007 NOSIG
過去の天気等 Google飛行場航空写真 Wunderground天気予報

過去48時間のMETAR

飛行場予報(TAF)
発表時間: 4/21 18:00 ICT (4/21 11:00 UTC)
予報対象時間: 21日19時 ICT ~ 23日1時 ICT
風向・風速南南東 5m/s
視程10km以上
少しの雲 雲底高度 520m
TAF VVTS 211100Z 2112/2218 15010KT 9999 FEW017